sensor_id;sensor_type;location;lat;lon;timestamp;P1;durP1;ratioP1;P2;durP2;ratioP2
5125;SDS011;63008;53.112;8.896;2023-03-21T00:01:02;52.20;;;38.50;;
5125;SDS011;63008;53.112;8.896;2023-03-21T00:03:06;60.20;;;41.40;;
5125;SDS011;63008;53.112;8.896;2023-03-21T00:05:07;58.73;;;38.97;;
5125;SDS011;63008;53.112;8.896;2023-03-21T00:07:08;59.93;;;38.33;;
5125;SDS011;63008;53.112;8.896;2023-03-21T00:09:09;60.00;;;39.70;;
5125;SDS011;63008;53.112;8.896;2023-03-21T00:11:11;59.63;;;37.80;;
5125;SDS011;63008;53.112;8.896;2023-03-21T00:13:13;56.37;;;37.93;;
5125;SDS011;63008;53.112;8.896;2023-03-21T00:15:18;52.80;;;36.60;;
5125;SDS011;63008;53.112;8.896;2023-03-21T00:17:19;50.37;;;37.07;;
5125;SDS011;63008;53.112;8.896;2023-03-21T00:19:21;49.30;;;38.53;;
5125;SDS011;63008;53.112;8.896;2023-03-21T00:21:25;52.23;;;35.60;;
5125;SDS011;63008;53.112;8.896;2023-03-21T00:23:31;51.47;;;35.53;;
5125;SDS011;63008;53.112;8.896;2023-03-21T00:25:33;49.43;;;34.97;;
5125;SDS011;63008;53.112;8.896;2023-03-21T00:27:34;50.90;;;35.20;;
5125;SDS011;63008;53.112;8.896;2023-03-21T00:29:36;50.53;;;34.60;;
5125;SDS011;63008;53.112;8.896;2023-03-21T00:31:37;48.00;;;34.17;;
5125;SDS011;63008;53.112;8.896;2023-03-21T00:33:38;46.63;;;34.63;;
5125;SDS011;63008;53.112;8.896;2023-03-21T00:35:39;49.43;;;35.20;;
5125;SDS011;63008;53.112;8.896;2023-03-21T00:37:47;45.90;;;31.80;;
5125;SDS011;63008;53.112;8.896;2023-03-21T00:39:48;47.30;;;33.30;;
5125;SDS011;63008;53.112;8.896;2023-03-21T00:41:49;49.90;;;35.40;;
5125;SDS011;63008;53.112;8.896;2023-03-21T00:43:50;43.30;;;32.67;;
5125;SDS011;63008;53.112;8.896;2023-03-21T00:45:51;42.53;;;31.10;;
5125;SDS011;63008;53.112;8.896;2023-03-21T00:47:52;44.33;;;31.90;;
5125;SDS011;63008;53.112;8.896;2023-03-21T00:49:53;49.37;;;35.30;;
5125;SDS011;63008;53.112;8.896;2023-03-21T00:51:54;45.47;;;33.90;;
5125;SDS011;63008;53.112;8.896;2023-03-21T00:53:57;46.17;;;31.90;;
5125;SDS011;63008;53.112;8.896;2023-03-21T00:55:58;43.60;;;31.67;;
5125;SDS011;63008;53.112;8.896;2023-03-21T00:57:59;46.80;;;33.20;;
5125;SDS011;63008;53.112;8.896;2023-03-21T01:00:00;47.20;;;31.27;;
5125;SDS011;63008;53.112;8.896;2023-03-21T01:02:01;44.37;;;32.67;;
5125;SDS011;63008;53.112;8.896;2023-03-21T01:04:06;45.57;;;32.03;;
5125;SDS011;63008;53.112;8.896;2023-03-21T01:06:13;49.30;;;33.70;;
5125;SDS011;63008;53.112;8.896;2023-03-21T01:08:15;45.07;;;32.47;;
5125;SDS011;63008;53.112;8.896;2023-03-21T01:10:17;50.83;;;35.70;;
5125;SDS011;63008;53.112;8.896;2023-03-21T01:12:18;46.63;;;32.20;;
5125;SDS011;63008;53.112;8.896;2023-03-21T01:14:21;45.37;;;32.63;;
5125;SDS011;63008;53.112;8.896;2023-03-21T01:16:23;44.93;;;33.07;;
5125;SDS011;63008;53.112;8.896;2023-03-21T01:18:25;44.50;;;32.60;;
5125;SDS011;63008;53.112;8.896;2023-03-21T01:20:28;51.77;;;33.90;;
5125;SDS011;63008;53.112;8.896;2023-03-21T01:22:29;48.60;;;34.10;;
5125;SDS011;63008;53.112;8.896;2023-03-21T01:24:30;52.30;;;33.00;;
5125;SDS011;63008;53.112;8.896;2023-03-21T01:26:33;43.10;;;30.70;;
5125;SDS011;63008;53.112;8.896;2023-03-21T01:28:38;47.00;;;33.27;;
5125;SDS011;63008;53.112;8.896;2023-03-21T01:30:43;42.10;;;31.80;;
5125;SDS011;63008;53.112;8.896;2023-03-21T01:32:46;43.53;;;32.50;;
5125;SDS011;63008;53.112;8.896;2023-03-21T01:34:47;46.83;;;32.87;;
5125;SDS011;63008;53.112;8.896;2023-03-21T01:36:48;44.03;;;30.53;;
5125;SDS011;63008;53.112;8.896;2023-03-21T01:38:49;44.47;;;30.73;;
5125;SDS011;63008;53.112;8.896;2023-03-21T01:40:51;42.63;;;31.70;;
5125;SDS011;63008;53.112;8.896;2023-03-21T01:42:52;48.30;;;32.73;;
5125;SDS011;63008;53.112;8.896;2023-03-21T01:44:55;42.40;;;31.27;;
5125;SDS011;63008;53.112;8.896;2023-03-21T01:46:58;44.00;;;31.67;;
5125;SDS011;63008;53.112;8.896;2023-03-21T01:49:01;47.47;;;32.27;;
5125;SDS011;63008;53.112;8.896;2023-03-21T01:51:14;47.63;;;34.33;;
5125;SDS011;63008;53.112;8.896;2023-03-21T01:53:18;44.40;;;32.37;;
5125;SDS011;63008;53.112;8.896;2023-03-21T01:55:21;47.10;;;31.60;;
5125;SDS011;63008;53.112;8.896;2023-03-21T01:57:29;45.00;;;33.57;;
5125;SDS011;63008;53.112;8.896;2023-03-21T01:59:45;46.63;;;32.43;;
5125;SDS011;63008;53.112;8.896;2023-03-21T02:01:52;47.23;;;31.97;;
5125;SDS011;63008;53.112;8.896;2023-03-21T02:03:53;46.27;;;32.77;;
5125;SDS011;63008;53.112;8.896;2023-03-21T02:06:00;45.87;;;33.20;;
5125;SDS011;63008;53.112;8.896;2023-03-21T02:08:04;46.27;;;32.90;;
5125;SDS011;63008;53.112;8.896;2023-03-21T02:10:06;50.93;;;33.20;;
5125;SDS011;63008;53.112;8.896;2023-03-21T02:12:09;48.50;;;33.70;;
5125;SDS011;63008;53.112;8.896;2023-03-21T02:14:12;49.20;;;34.57;;
5125;SDS011;63008;53.112;8.896;2023-03-21T02:20:48;60.93;;;34.80;;
5125;SDS011;63008;53.112;8.896;2023-03-21T02:27:22;58.77;;;35.83;;
5125;SDS011;63008;53.112;8.896;2023-03-21T02:31:52;59.07;;;36.70;;
5125;SDS011;63008;53.112;8.896;2023-03-21T02:33:59;58.80;;;36.67;;
5125;SDS011;63008;53.112;8.896;2023-03-21T02:41:18;66.17;;;38.93;;
5125;SDS011;63008;53.112;8.896;2023-03-21T02:43:43;57.63;;;38.40;;
5125;SDS011;63008;53.112;8.896;2023-03-21T02:45:52;56.93;;;37.30;;
5125;SDS011;63008;53.112;8.896;2023-03-21T02:48:00;60.93;;;38.77;;
5125;SDS011;63008;53.112;8.896;2023-03-21T02:50:14;66.50;;;39.83;;
5125;SDS011;63008;53.112;8.896;2023-03-21T02:52:22;68.37;;;40.67;;
5125;SDS011;63008;53.112;8.896;2023-03-21T02:54:30;59.43;;;40.37;;
5125;SDS011;63008;53.112;8.896;2023-03-21T02:56:32;66.47;;;42.37;;
5125;SDS011;63008;53.112;8.896;2023-03-21T02:58:36;63.17;;;41.20;;
5125;SDS011;63008;53.112;8.896;2023-03-21T03:00:39;68.03;;;40.70;;
5125;SDS011;63008;53.112;8.896;2023-03-21T03:02:42;74.03;;;42.87;;
5125;SDS011;63008;53.112;8.896;2023-03-21T03:04:44;77.90;;;42.23;;
5125;SDS011;63008;53.112;8.896;2023-03-21T03:09:23;74.23;;;44.83;;
5125;SDS011;63008;53.112;8.896;2023-03-21T03:11:40;72.17;;;41.30;;
5125;SDS011;63008;53.112;8.896;2023-03-21T03:16:03;79.93;;;42.07;;
5125;SDS011;63008;53.112;8.896;2023-03-21T03:18:18;81.70;;;42.57;;
5125;SDS011;63008;53.112;8.896;2023-03-21T03:20:37;68.90;;;43.00;;
5125;SDS011;63008;53.112;8.896;2023-03-21T03:25:25;78.17;;;41.50;;
5125;SDS011;63008;53.112;8.896;2023-03-21T03:27:31;83.77;;;42.50;;
5125;SDS011;63008;53.112;8.896;2023-03-21T03:29:38;93.57;;;44.87;;
5125;SDS011;63008;53.112;8.896;2023-03-21T03:31:46;70.70;;;42.10;;
5125;SDS011;63008;53.112;8.896;2023-03-21T03:33:53;77.93;;;43.27;;
5125;SDS011;63008;53.112;8.896;2023-03-21T03:35:57;73.00;;;42.70;;
5125;SDS011;63008;53.112;8.896;2023-03-21T03:37:59;79.60;;;41.70;;
5125;SDS011;63008;53.112;8.896;2023-03-21T03:40:05;84.63;;;43.00;;
5125;SDS011;63008;53.112;8.896;2023-03-21T03:42:11;74.80;;;41.53;;
5125;SDS011;63008;53.112;8.896;2023-03-21T03:44:16;71.63;;;42.00;;
5125;SDS011;63008;53.112;8.896;2023-03-21T03:46:18;77.20;;;40.20;;
5125;SDS011;63008;53.112;8.896;2023-03-21T03:48:34;70.60;;;41.53;;
5125;SDS011;63008;53.112;8.896;2023-03-21T03:53:05;79.60;;;43.00;;
5125;SDS011;63008;53.112;8.896;2023-03-21T03:55:16;79.37;;;40.77;;
5125;SDS011;63008;53.112;8.896;2023-03-21T03:57:21;72.17;;;41.60;;
5125;SDS011;63008;53.112;8.896;2023-03-21T03:59:25;68.33;;;40.80;;
5125;SDS011;63008;53.112;8.896;2023-03-21T04:01:26;81.70;;;42.63;;
5125;SDS011;63008;53.112;8.896;2023-03-21T04:03:27;74.47;;;41.63;;
5125;SDS011;63008;53.112;8.896;2023-03-21T04:05:28;81.00;;;42.10;;
5125;SDS011;63008;53.112;8.896;2023-03-21T04:07:30;73.50;;;43.10;;
5125;SDS011;63008;53.112;8.896;2023-03-21T04:09:31;78.03;;;42.17;;
5125;SDS011;63008;53.112;8.896;2023-03-21T04:11:32;77.07;;;42.43;;
5125;SDS011;63008;53.112;8.896;2023-03-21T04:13:33;76.20;;;42.17;;
5125;SDS011;63008;53.112;8.896;2023-03-21T04:15:34;76.83;;;42.47;;
5125;SDS011;63008;53.112;8.896;2023-03-21T04:17:36;84.00;;;42.47;;
5125;SDS011;63008;53.112;8.896;2023-03-21T04:19:39;83.17;;;44.37;;
5125;SDS011;63008;53.112;8.896;2023-03-21T04:21:41;88.83;;;44.37;;
5125;SDS011;63008;53.112;8.896;2023-03-21T04:23:43;82.87;;;44.00;;
5125;SDS011;63008;53.112;8.896;2023-03-21T04:25:44;75.53;;;43.57;;
5125;SDS011;63008;53.112;8.896;2023-03-21T04:27:45;97.53;;;46.60;;
5125;SDS011;63008;53.112;8.896;2023-03-21T04:29:47;77.73;;;44.87;;
5125;SDS011;63008;53.112;8.896;2023-03-21T04:31:48;102.30;;;45.00;;
5125;SDS011;63008;53.112;8.896;2023-03-21T04:33:49;87.70;;;45.47;;
5125;SDS011;63008;53.112;8.896;2023-03-21T04:35:51;85.63;;;45.80;;
5125;SDS011;63008;53.112;8.896;2023-03-21T04:37:55;88.13;;;44.20;;
5125;SDS011;63008;53.112;8.896;2023-03-21T04:39:56;93.30;;;46.03;;
5125;SDS011;63008;53.112;8.896;2023-03-21T04:41:57;91.90;;;45.30;;
5125;SDS011;63008;53.112;8.896;2023-03-21T04:43:58;93.17;;;45.83;;
5125;SDS011;63008;53.112;8.896;2023-03-21T04:45:59;101.43;;;46.40;;
5125;SDS011;63008;53.112;8.896;2023-03-21T04:48:00;87.47;;;46.13;;
5125;SDS011;63008;53.112;8.896;2023-03-21T04:50:01;97.77;;;48.73;;
5125;SDS011;63008;53.112;8.896;2023-03-21T04:52:03;95.87;;;47.50;;
5125;SDS011;63008;53.112;8.896;2023-03-21T04:54:04;92.00;;;44.40;;
5125;SDS011;63008;53.112;8.896;2023-03-21T04:56:05;97.23;;;43.80;;
5125;SDS011;63008;53.112;8.896;2023-03-21T04:58:06;91.77;;;43.87;;
5125;SDS011;63008;53.112;8.896;2023-03-21T05:00:08;103.77;;;47.10;;
5125;SDS011;63008;53.112;8.896;2023-03-21T05:02:10;82.63;;;44.07;;
5125;SDS011;63008;53.112;8.896;2023-03-21T05:04:12;92.10;;;43.40;;
5125;SDS011;63008;53.112;8.896;2023-03-21T05:06:14;93.30;;;45.67;;
5125;SDS011;63008;53.112;8.896;2023-03-21T05:08:15;92.40;;;43.07;;
5125;SDS011;63008;53.112;8.896;2023-03-21T05:10:16;87.43;;;42.00;;
5125;SDS011;63008;53.112;8.896;2023-03-21T05:12:17;88.03;;;44.03;;
5125;SDS011;63008;53.112;8.896;2023-03-21T05:14:20;100.10;;;42.83;;
5125;SDS011;63008;53.112;8.896;2023-03-21T05:16:23;85.73;;;41.03;;
5125;SDS011;63008;53.112;8.896;2023-03-21T05:18:26;84.90;;;41.30;;
5125;SDS011;63008;53.112;8.896;2023-03-21T05:20:27;84.77;;;42.90;;
5125;SDS011;63008;53.112;8.896;2023-03-21T05:22:28;84.57;;;41.63;;
5125;SDS011;63008;53.112;8.896;2023-03-21T05:24:29;69.77;;;38.40;;
5125;SDS011;63008;53.112;8.896;2023-03-21T05:26:32;92.03;;;42.47;;
5125;SDS011;63008;53.112;8.896;2023-03-21T05:28:33;76.27;;;40.47;;
5125;SDS011;63008;53.112;8.896;2023-03-21T05:30:36;74.70;;;38.67;;
5125;SDS011;63008;53.112;8.896;2023-03-21T05:32:37;75.43;;;40.57;;
5125;SDS011;63008;53.112;8.896;2023-03-21T05:34:38;76.73;;;38.67;;
5125;SDS011;63008;53.112;8.896;2023-03-21T05:36:39;82.70;;;41.37;;
5125;SDS011;63008;53.112;8.896;2023-03-21T05:38:40;84.80;;;38.63;;
5125;SDS011;63008;53.112;8.896;2023-03-21T05:40:45;69.07;;;39.23;;
5125;SDS011;63008;53.112;8.896;2023-03-21T05:42:47;80.30;;;39.40;;
5125;SDS011;63008;53.112;8.896;2023-03-21T05:44:48;68.30;;;37.67;;
5125;SDS011;63008;53.112;8.896;2023-03-21T05:46:49;74.90;;;36.67;;
5125;SDS011;63008;53.112;8.896;2023-03-21T05:48:50;74.30;;;37.60;;
5125;SDS011;63008;53.112;8.896;2023-03-21T05:50:52;74.90;;;37.53;;
5125;SDS011;63008;53.112;8.896;2023-03-21T05:52:53;77.60;;;36.90;;
5125;SDS011;63008;53.112;8.896;2023-03-21T05:54:54;79.07;;;37.67;;
5125;SDS011;63008;53.112;8.896;2023-03-21T05:56:55;72.73;;;37.60;;
5125;SDS011;63008;53.112;8.896;2023-03-21T05:58:56;77.67;;;37.17;;
5125;SDS011;63008;53.112;8.896;2023-03-21T06:00:57;67.33;;;35.23;;
5125;SDS011;63008;53.112;8.896;2023-03-21T06:02:58;73.37;;;36.97;;
5125;SDS011;63008;53.112;8.896;2023-03-21T06:04:59;76.57;;;38.00;;
5125;SDS011;63008;53.112;8.896;2023-03-21T06:07:00;73.57;;;35.77;;
5125;SDS011;63008;53.112;8.896;2023-03-21T06:09:01;72.10;;;35.63;;
5125;SDS011;63008;53.112;8.896;2023-03-21T06:11:03;77.10;;;37.53;;
5125;SDS011;63008;53.112;8.896;2023-03-21T06:13:04;76.50;;;35.10;;
5125;SDS011;63008;53.112;8.896;2023-03-21T06:15:05;77.90;;;37.30;;
5125;SDS011;63008;53.112;8.896;2023-03-21T06:17:08;76.20;;;35.67;;
5125;SDS011;63008;53.112;8.896;2023-03-21T06:19:09;71.93;;;37.47;;
5125;SDS011;63008;53.112;8.896;2023-03-21T06:21:10;73.93;;;37.10;;
5125;SDS011;63008;53.112;8.896;2023-03-21T06:23:11;81.93;;;36.77;;
5125;SDS011;63008;53.112;8.896;2023-03-21T06:25:12;64.37;;;34.20;;
5125;SDS011;63008;53.112;8.896;2023-03-21T06:27:13;75.03;;;35.07;;
5125;SDS011;63008;53.112;8.896;2023-03-21T06:29:14;73.37;;;36.17;;
5125;SDS011;63008;53.112;8.896;2023-03-21T06:31:15;65.47;;;33.30;;
5125;SDS011;63008;53.112;8.896;2023-03-21T06:33:16;68.77;;;35.37;;
5125;SDS011;63008;53.112;8.896;2023-03-21T06:35:17;68.83;;;33.67;;
5125;SDS011;63008;53.112;8.896;2023-03-21T06:37:18;71.30;;;32.93;;
5125;SDS011;63008;53.112;8.896;2023-03-21T06:39:20;63.60;;;33.50;;
5125;SDS011;63008;53.112;8.896;2023-03-21T06:41:21;56.80;;;31.70;;
5125;SDS011;63008;53.112;8.896;2023-03-21T06:43:22;57.47;;;32.27;;
5125;SDS011;63008;53.112;8.896;2023-03-21T06:45:23;67.50;;;32.90;;
5125;SDS011;63008;53.112;8.896;2023-03-21T06:47:25;58.37;;;31.00;;
5125;SDS011;63008;53.112;8.896;2023-03-21T06:49:26;53.60;;;30.13;;
5125;SDS011;63008;53.112;8.896;2023-03-21T06:51:29;58.37;;;31.50;;
5125;SDS011;63008;53.112;8.896;2023-03-21T06:53:30;49.77;;;31.23;;
5125;SDS011;63008;53.112;8.896;2023-03-21T06:55:32;54.80;;;30.50;;
5125;SDS011;63008;53.112;8.896;2023-03-21T06:57:33;61.80;;;30.40;;
5125;SDS011;63008;53.112;8.896;2023-03-21T06:59:35;55.07;;;30.73;;
5125;SDS011;63008;53.112;8.896;2023-03-21T07:01:38;55.93;;;29.30;;
5125;SDS011;63008;53.112;8.896;2023-03-21T07:03:39;51.90;;;29.13;;
5125;SDS011;63008;53.112;8.896;2023-03-21T07:05:40;52.47;;;29.23;;
5125;SDS011;63008;53.112;8.896;2023-03-21T07:07:41;54.63;;;29.80;;
5125;SDS011;63008;53.112;8.896;2023-03-21T07:09:42;43.80;;;29.10;;
5125;SDS011;63008;53.112;8.896;2023-03-21T07:11:43;45.77;;;26.50;;
5125;SDS011;63008;53.112;8.896;2023-03-21T07:13:44;45.73;;;25.80;;
5125;SDS011;63008;53.112;8.896;2023-03-21T07:15:46;52.07;;;27.10;;
5125;SDS011;63008;53.112;8.896;2023-03-21T07:17:47;46.17;;;27.50;;
5125;SDS011;63008;53.112;8.896;2023-03-21T07:19:48;48.60;;;27.67;;
5125;SDS011;63008;53.112;8.896;2023-03-21T07:21:49;45.30;;;27.17;;
5125;SDS011;63008;53.112;8.896;2023-03-21T07:23:50;41.90;;;26.10;;
5125;SDS011;63008;53.112;8.896;2023-03-21T07:25:51;39.50;;;24.90;;
5125;SDS011;63008;53.112;8.896;2023-03-21T07:27:52;44.77;;;26.97;;
5125;SDS011;63008;53.112;8.896;2023-03-21T07:29:53;43.37;;;25.90;;
5125;SDS011;63008;53.112;8.896;2023-03-21T07:31:54;41.13;;;26.23;;
5125;SDS011;63008;53.112;8.896;2023-03-21T07:33:55;45.33;;;25.33;;
5125;SDS011;63008;53.112;8.896;2023-03-21T07:35:56;47.43;;;27.50;;
5125;SDS011;63008;53.112;8.896;2023-03-21T07:37:58;46.10;;;26.70;;
5125;SDS011;63008;53.112;8.896;2023-03-21T07:39:59;40.90;;;25.50;;
5125;SDS011;63008;53.112;8.896;2023-03-21T07:42:00;40.30;;;23.63;;
5125;SDS011;63008;53.112;8.896;2023-03-21T07:44:01;37.10;;;24.47;;
5125;SDS011;63008;53.112;8.896;2023-03-21T07:46:03;44.40;;;26.17;;
5125;SDS011;63008;53.112;8.896;2023-03-21T07:48:04;38.53;;;23.60;;
5125;SDS011;63008;53.112;8.896;2023-03-21T07:50:06;39.00;;;24.10;;
5125;SDS011;63008;53.112;8.896;2023-03-21T07:52:07;37.83;;;24.30;;
5125;SDS011;63008;53.112;8.896;2023-03-21T07:54:08;34.10;;;22.10;;
5125;SDS011;63008;53.112;8.896;2023-03-21T07:56:09;38.10;;;24.00;;
5125;SDS011;63008;53.112;8.896;2023-03-21T07:58:10;46.20;;;22.67;;
5125;SDS011;63008;53.112;8.896;2023-03-21T08:00:11;43.50;;;24.03;;
5125;SDS011;63008;53.112;8.896;2023-03-21T08:02:22;43.30;;;24.27;;
5125;SDS011;63008;53.112;8.896;2023-03-21T08:04:23;40.03;;;24.90;;
5125;SDS011;63008;53.112;8.896;2023-03-21T08:06:26;38.27;;;25.40;;
5125;SDS011;63008;53.112;8.896;2023-03-21T08:08:28;37.60;;;24.13;;
5125;SDS011;63008;53.112;8.896;2023-03-21T08:10:28;36.17;;;24.00;;
5125;SDS011;63008;53.112;8.896;2023-03-21T08:12:29;37.93;;;25.40;;
5125;SDS011;63008;53.112;8.896;2023-03-21T08:14:30;39.83;;;25.20;;
5125;SDS011;63008;53.112;8.896;2023-03-21T08:16:32;35.17;;;25.07;;
5125;SDS011;63008;53.112;8.896;2023-03-21T08:18:33;40.00;;;24.30;;
5125;SDS011;63008;53.112;8.896;2023-03-21T08:20:34;42.17;;;25.80;;
5125;SDS011;63008;53.112;8.896;2023-03-21T08:22:36;36.53;;;23.67;;
5125;SDS011;63008;53.112;8.896;2023-03-21T08:24:37;40.07;;;25.77;;
5125;SDS011;63008;53.112;8.896;2023-03-21T08:26:38;41.03;;;25.43;;
5125;SDS011;63008;53.112;8.896;2023-03-21T08:28:39;37.97;;;25.80;;
5125;SDS011;63008;53.112;8.896;2023-03-21T08:30:41;42.27;;;24.83;;
5125;SDS011;63008;53.112;8.896;2023-03-21T08:32:42;37.17;;;25.33;;
5125;SDS011;63008;53.112;8.896;2023-03-21T08:34:43;38.10;;;25.20;;
5125;SDS011;63008;53.112;8.896;2023-03-21T08:36:44;38.43;;;25.37;;
5125;SDS011;63008;53.112;8.896;2023-03-21T08:38:46;41.07;;;26.37;;
5125;SDS011;63008;53.112;8.896;2023-03-21T08:40:48;33.73;;;24.83;;
5125;SDS011;63008;53.112;8.896;2023-03-21T08:42:49;34.53;;;24.63;;
5125;SDS011;63008;53.112;8.896;2023-03-21T08:44:53;37.60;;;26.63;;
5125;SDS011;63008;53.112;8.896;2023-03-21T08:46:54;44.40;;;26.63;;
5125;SDS011;63008;53.112;8.896;2023-03-21T08:48:55;35.90;;;26.37;;
5125;SDS011;63008;53.112;8.896;2023-03-21T08:50:58;38.60;;;26.30;;
5125;SDS011;63008;53.112;8.896;2023-03-21T08:53:00;34.30;;;24.40;;
5125;SDS011;63008;53.112;8.896;2023-03-21T08:55:01;35.77;;;23.23;;
5125;SDS011;63008;53.112;8.896;2023-03-21T08:57:02;35.17;;;24.23;;
5125;SDS011;63008;53.112;8.896;2023-03-21T08:59:03;33.33;;;23.47;;
5125;SDS011;63008;53.112;8.896;2023-03-21T09:01:04;40.83;;;23.00;;
5125;SDS011;63008;53.112;8.896;2023-03-21T09:03:10;26.67;;;21.20;;
5125;SDS011;63008;53.112;8.896;2023-03-21T09:05:12;35.83;;;21.30;;
5125;SDS011;63008;53.112;8.896;2023-03-21T09:07:13;31.10;;;20.73;;
5125;SDS011;63008;53.112;8.896;2023-03-21T09:09:17;29.07;;;19.93;;
5125;SDS011;63008;53.112;8.896;2023-03-21T09:11:18;31.63;;;19.27;;
5125;SDS011;63008;53.112;8.896;2023-03-21T09:13:19;26.63;;;21.00;;
5125;SDS011;63008;53.112;8.896;2023-03-21T09:15:22;26.13;;;20.60;;
5125;SDS011;63008;53.112;8.896;2023-03-21T09:17:24;28.67;;;20.90;;
5125;SDS011;63008;53.112;8.896;2023-03-21T09:19:25;26.33;;;18.70;;
5125;SDS011;63008;53.112;8.896;2023-03-21T09:21:27;27.90;;;19.77;;
5125;SDS011;63008;53.112;8.896;2023-03-21T09:23:28;26.67;;;20.57;;
5125;SDS011;63008;53.112;8.896;2023-03-21T09:25:29;30.10;;;20.10;;
5125;SDS011;63008;53.112;8.896;2023-03-21T09:27:30;25.73;;;19.80;;
5125;SDS011;63008;53.112;8.896;2023-03-21T09:29:31;32.67;;;21.10;;
5125;SDS011;63008;53.112;8.896;2023-03-21T09:31:33;26.27;;;20.60;;
5125;SDS011;63008;53.112;8.896;2023-03-21T09:33:34;26.13;;;19.00;;
5125;SDS011;63008;53.112;8.896;2023-03-21T09:35:35;24.50;;;18.73;;
5125;SDS011;63008;53.112;8.896;2023-03-21T09:37:36;23.37;;;19.03;;
5125;SDS011;63008;53.112;8.896;2023-03-21T09:39:42;34.40;;;18.40;;
5125;SDS011;63008;53.112;8.896;2023-03-21T09:46:26;24.90;;;16.90;;
5125;SDS011;63008;53.112;8.896;2023-03-21T09:50:54;26.87;;;17.53;;
5125;SDS011;63008;53.112;8.896;2023-03-21T09:52:56;25.10;;;17.57;;
5125;SDS011;63008;53.112;8.896;2023-03-21T09:54:59;22.20;;;15.83;;
5125;SDS011;63008;53.112;8.896;2023-03-21T09:57:15;20.70;;;15.30;;
5125;SDS011;63008;53.112;8.896;2023-03-21T10:01:37;23.00;;;16.20;;
5125;SDS011;63008;53.112;8.896;2023-03-21T10:03:44;25.97;;;15.80;;
5125;SDS011;63008;53.112;8.896;2023-03-21T10:05:47;22.13;;;16.00;;
5125;SDS011;63008;53.112;8.896;2023-03-21T10:08:34;21.93;;;15.10;;
5125;SDS011;63008;53.112;8.896;2023-03-21T10:10:29;24.30;;;16.10;;
5125;SDS011;63008;53.112;8.896;2023-03-21T10:12:34;20.63;;;14.23;;
5125;SDS011;63008;53.112;8.896;2023-03-21T10:14:39;21.03;;;13.57;;
5125;SDS011;63008;53.112;8.896;2023-03-21T10:16:48;17.20;;;14.70;;
5125;SDS011;63008;53.112;8.896;2023-03-21T10:18:53;21.20;;;14.10;;
5125;SDS011;63008;53.112;8.896;2023-03-21T10:20:55;22.40;;;14.00;;
5125;SDS011;63008;53.112;8.896;2023-03-21T10:22:57;18.83;;;14.07;;
5125;SDS011;63008;53.112;8.896;2023-03-21T10:25:00;18.20;;;15.00;;
5125;SDS011;63008;53.112;8.896;2023-03-21T10:27:02;24.33;;;16.50;;
5125;SDS011;63008;53.112;8.896;2023-03-21T10:29:03;26.13;;;17.27;;
5125;SDS011;63008;53.112;8.896;2023-03-21T10:31:06;22.27;;;17.30;;
5125;SDS011;63008;53.112;8.896;2023-03-21T10:33:12;21.20;;;17.27;;
5125;SDS011;63008;53.112;8.896;2023-03-21T10:35:16;23.50;;;17.70;;
5125;SDS011;63008;53.112;8.896;2023-03-21T10:37:18;30.10;;;18.90;;
5125;SDS011;63008;53.112;8.896;2023-03-21T10:39:20;30.20;;;19.60;;
5125;SDS011;63008;53.112;8.896;2023-03-21T10:41:27;22.40;;;16.20;;
5125;SDS011;63008;53.112;8.896;2023-03-21T10:45:29;28.53;;;18.20;;
5125;SDS011;63008;53.112;8.896;2023-03-21T10:47:33;24.77;;;15.90;;
5125;SDS011;63008;53.112;8.896;2023-03-21T10:49:35;24.03;;;17.50;;
5125;SDS011;63008;53.112;8.896;2023-03-21T10:51:37;23.23;;;17.43;;
5125;SDS011;63008;53.112;8.896;2023-03-21T10:53:39;26.13;;;18.07;;
5125;SDS011;63008;53.112;8.896;2023-03-21T10:55:46;25.83;;;17.60;;
5125;SDS011;63008;53.112;8.896;2023-03-21T10:58:25;24.10;;;15.80;;
5125;SDS011;63008;53.112;8.896;2023-03-21T11:00:26;23.10;;;17.07;;
5125;SDS011;63008;53.112;8.896;2023-03-21T11:02:31;21.80;;;18.40;;
5125;SDS011;63008;53.112;8.896;2023-03-21T11:04:34;30.40;;;19.10;;
5125;SDS011;63008;53.112;8.896;2023-03-21T11:06:37;29.23;;;19.30;;
5125;SDS011;63008;53.112;8.896;2023-03-21T11:08:40;33.70;;;20.00;;
5125;SDS011;63008;53.112;8.896;2023-03-21T11:12:55;24.90;;;18.10;;
5125;SDS011;63008;53.112;8.896;2023-03-21T11:14:57;30.20;;;18.57;;
5125;SDS011;63008;53.112;8.896;2023-03-21T11:17:29;24.73;;;18.50;;
5125;SDS011;63008;53.112;8.896;2023-03-21T11:19:34;26.73;;;20.57;;
5125;SDS011;63008;53.112;8.896;2023-03-21T11:21:36;30.07;;;20.50;;
5125;SDS011;63008;53.112;8.896;2023-03-21T11:23:38;25.87;;;19.30;;
5125;SDS011;63008;53.112;8.896;2023-03-21T11:25:44;32.07;;;20.17;;
5125;SDS011;63008;53.112;8.896;2023-03-21T11:27:50;30.17;;;20.40;;
5125;SDS011;63008;53.112;8.896;2023-03-21T11:29:55;25.30;;;17.93;;
5125;SDS011;63008;53.112;8.896;2023-03-21T11:31:59;26.07;;;19.40;;
5125;SDS011;63008;53.112;8.896;2023-03-21T11:34:19;29.00;;;20.43;;
5125;SDS011;63008;53.112;8.896;2023-03-21T11:36:32;22.33;;;18.00;;
5125;SDS011;63008;53.112;8.896;2023-03-21T11:38:38;25.53;;;19.10;;
5125;SDS011;63008;53.112;8.896;2023-03-21T11:40:39;21.87;;;14.97;;
5125;SDS011;63008;53.112;8.896;2023-03-21T11:42:54;26.43;;;19.30;;
5125;SDS011;63008;53.112;8.896;2023-03-21T11:45:02;24.00;;;17.83;;
5125;SDS011;63008;53.112;8.896;2023-03-21T11:47:11;25.30;;;18.00;;
5125;SDS011;63008;53.112;8.896;2023-03-21T11:49:12;22.50;;;17.60;;
5125;SDS011;63008;53.112;8.896;2023-03-21T11:51:21;23.53;;;17.67;;
5125;SDS011;63008;53.112;8.896;2023-03-21T11:53:45;29.43;;;18.30;;
5125;SDS011;63008;53.112;8.896;2023-03-21T11:56:39;28.00;;;18.50;;
5125;SDS011;63008;53.112;8.896;2023-03-21T12:03:34;26.73;;;21.17;;
5125;SDS011;63008;53.112;8.896;2023-03-21T12:05:49;25.57;;;18.90;;
5125;SDS011;63008;53.112;8.896;2023-03-21T12:10:38;25.27;;;18.37;;
5125;SDS011;63008;53.112;8.896;2023-03-21T12:12:53;26.53;;;19.50;;
5125;SDS011;63008;53.112;8.896;2023-03-21T12:20:11;28.00;;;19.80;;
5125;SDS011;63008;53.112;8.896;2023-03-21T12:22:24;31.13;;;21.50;;
5125;SDS011;63008;53.112;8.896;2023-03-21T12:24:38;29.10;;;20.13;;
5125;SDS011;63008;53.112;8.896;2023-03-21T12:26:57;28.10;;;21.50;;
5125;SDS011;63008;53.112;8.896;2023-03-21T12:29:26;33.50;;;22.90;;
5125;SDS011;63008;53.112;8.896;2023-03-21T12:31:49;34.33;;;20.63;;
5125;SDS011;63008;53.112;8.896;2023-03-21T12:34:07;30.80;;;22.10;;
5125;SDS011;63008;53.112;8.896;2023-03-21T12:36:27;28.33;;;20.60;;
5125;SDS011;63008;53.112;8.896;2023-03-21T12:41:04;32.80;;;23.50;;
5125;SDS011;63008;53.112;8.896;2023-03-21T12:43:21;34.30;;;23.80;;
5125;SDS011;63008;53.112;8.896;2023-03-21T12:45:33;41.83;;;24.70;;
5125;SDS011;63008;53.112;8.896;2023-03-21T12:47:38;32.93;;;25.37;;
5125;SDS011;63008;53.112;8.896;2023-03-21T12:52:24;35.67;;;25.37;;
5125;SDS011;63008;53.112;8.896;2023-03-21T12:54:32;39.70;;;26.30;;
5125;SDS011;63008;53.112;8.896;2023-03-21T12:59:03;40.40;;;27.30;;
5125;SDS011;63008;53.112;8.896;2023-03-21T13:01:12;42.90;;;30.30;;
5125;SDS011;63008;53.112;8.896;2023-03-21T13:03:20;45.50;;;29.80;;
5125;SDS011;63008;53.112;8.896;2023-03-21T13:05:39;40.17;;;28.70;;
5125;SDS011;63008;53.112;8.896;2023-03-21T13:07:47;39.33;;;28.50;;
5125;SDS011;63008;53.112;8.896;2023-03-21T13:09:53;38.40;;;28.30;;
5125;SDS011;63008;53.112;8.896;2023-03-21T13:11:55;39.83;;;27.43;;
5125;SDS011;63008;53.112;8.896;2023-03-21T13:14:05;41.03;;;28.50;;
5125;SDS011;63008;53.112;8.896;2023-03-21T13:16:17;40.27;;;26.07;;